TimeCST,TemperatureF,Dew PointF,Humidity,Sea Level PressureIn,VisibilityMPH,Wind Direction,Wind SpeedMPH,Gust SpeedMPH,PrecipitationIn,Events,Conditions,WindDirDegrees,DateUTC
12:53 AM,21.9,12.9,68,30.45,10.0,North,10.4,-,N/A,,Clear,10,2013-01-24 06:53:00
1:53 AM,19.9,12.0,71,30.46,10.0,North,12.7,-,N/A,,Clear,10,2013-01-24 07:53:00
2:53 AM,19.0,10.0,68,30.46,10.0,NNE,9.2,-,N/A,,Clear,20,2013-01-24 08:53:00
3:53 AM,17.1,6.1,62,30.47,10.0,NE,8.1,-,N/A,,Clear,40,2013-01-24 09:53:00
4:53 AM,15.1,3.0,59,30.47,10.0,NE,9.2,-,N/A,,Clear,40,2013-01-24 10:53:00
5:53 AM,14.0,3.0,62,30.45,10.0,NE,8.1,-,N/A,,Clear,50,2013-01-24 11:53:00
6:53 AM,12.0,1.9,64,30.49,10.0,NE,9.2,-,N/A,,Clear,40,2013-01-24 12:53:00
7:53 AM,10.9,1.9,67,30.50,10.0,ENE,9.2,-,N/A,,Clear,70,2013-01-24 13:53:00
8:53 AM,12.0,1.9,64,30.49,10.0,ENE,10.4,-,N/A,,Clear,60,2013-01-24 14:53:00
9:53 AM,15.1,1.0,54,30.51,10.0,ENE,13.8,-,N/A,,Clear,70,2013-01-24 15:53:00
10:53 AM,17.1,1.0,50,30.50,10.0,ENE,6.9,-,N/A,,Clear,60,2013-01-24 16:53:00
11:53 AM,19.9,1.0,44,30.45,10.0,ENE,11.5,-,N/A,,Clear,70,2013-01-24 17:53:00
12:53 PM,23.0,1.0,39,30.38,10.0,East,11.5,17.3,N/A,,Clear,100,2013-01-24 18:53:00
1:53 PM,24.1,3.0,40,30.35,10.0,ESE,9.2,-,N/A,,Clear,110,2013-01-24 19:53:00
2:53 PM,26.1,3.0,37,30.31,10.0,East,8.1,-,N/A,,Clear,100,2013-01-24 20:53:00
3:53 PM,26.1,3.0,37,30.28,10.0,East,9.2,-,N/A,,Overcast,100,2013-01-24 21:53:00
4:53 PM,26.1,3.9,39,30.27,10.0,East,10.4,-,N/A,,Overcast,80,2013-01-24 22:53:00
5:26 PM,26.6,3.2,37,30.20,10.0,East,9.2,-,N/A,,Overcast,90,2013-01-24 23:26:00
5:53 PM,26.1,5.0,41,30.23,10.0,East,10.4,-,N/A,,Overcast,100,2013-01-24 23:53:00
6:53 PM,26.1,6.1,43,30.23,10.0,East,8.1,-,N/A,,Overcast,100,2013-01-25 00:53:00
7:53 PM,26.1,7.0,44,30.25,10.0,ESE,5.8,-,N/A,,Overcast,120,2013-01-25 01:53:00
8:53 PM,26.1,8.1,47,30.22,10.0,ESE,5.8,-,N/A,,Overcast,120,2013-01-25 02:53:00
9:53 PM,26.1,8.1,47,30.22,10.0,East,3.5,-,N/A,,Overcast,80,2013-01-25 03:53:00
10:53 PM,26.1,9.0,49,30.20,10.0,ESE,3.5,-,N/A,,Overcast,110,2013-01-25 04:53:00
11:53 PM,26.1,9.0,49,30.22,10.0,Calm,Calm,-,N/A,,Overcast,0,2013-01-25 05:53:00